Time;durP1;ratioP1;P1;durP2;ratioP2;P2;SDS_P1;SDS_P2;PMS_P1;PMS_P2;Temp;Humidity;BMP_temperature;BMP_pressure;BME280_temperature;BME280_humidity;BME280_pressure;Samples;Min_cycle;Max_cycle;Signal;HPM_P1;HPM_P2
2022/04/19 00:00:18;;;;;;;;;15.00;13.25;;;;;15.03;51.01;100901.44;5075684;28;45549;-49
2022/04/19 00:02:44;;;;;;;;;10.75;9.00;;;;;15.02;51.45;100902.53;5075197;28;45535;-49
2022/04/19 00:05:09;;;;;;;;;14.00;12.25;;;;;15.01;51.29;100900.81;5075286;28;45360;-48
2022/04/19 00:07:36;;;;;;;;;14.50;13.50;;;;;15.05;51.71;100895.66;5075550;28;45395;-49
2022/04/19 00:10:03;;;;;;;;;11.20;9.40;;;;;15.03;51.42;100895.06;5075182;28;45571;-50
2022/04/19 00:12:29;;;;;;;;;11.00;9.40;;;;;14.84;51.58;100892.38;5075247;28;45356;-48
2022/04/19 00:14:54;;;;;;;;;6.00;5.00;;;;;14.52;51.09;100850.38;5074667;28;45383;-51
2022/04/19 00:17:20;;;;;;;;;6.75;6.75;;;;;14.70;51.19;100885.34;5057136;28;45454;-54
2022/04/19 00:19:46;;;;;;;;;10.00;6.75;;;;;14.62;51.06;100887.38;5075296;28;45491;-48
2022/04/19 00:22:12;;;;;;;;;8.20;8.20;;;;;14.67;50.81;100892.19;5075141;28;46289;-52
2022/04/19 00:24:38;;;;;;;;;10.80;7.00;;;;;14.72;50.74;100872.13;5075177;28;45197;-48
2022/04/19 00:27:04;;;;;;;;;9.20;4.60;;;;;14.78;50.56;100890.56;5075174;28;45313;-49
2022/04/19 00:29:30;;;;;;;;;8.50;6.00;;;;;14.72;50.29;100880.41;5075411;28;45286;-49
2022/04/19 00:31:56;;;;;;;;;8.00;7.20;;;;;14.69;50.47;100879.00;5074800;28;46359;-50
2022/04/19 00:34:21;;;;;;;;;8.75;7.00;;;;;14.80;50.44;100884.81;5056715;28;45432;-48
2022/04/19 00:36:47;;;;;;;;;8.50;7.75;;;;;14.81;50.46;100881.81;5075075;28;45437;-48
2022/04/19 00:39:12;;;;;;;;;7.25;7.25;;;;;14.84;50.71;100883.25;5075043;28;45543;-52
2022/04/19 00:41:38;;;;;;;;;7.75;6.75;;;;;14.68;50.74;100882.00;5074557;28;45510;-53
2022/04/19 00:44:04;;;;;;;;;11.50;11.50;;;;;14.71;50.67;100879.59;5076114;28;45479;-49
2022/04/19 00:46:29;;;;;;;;;9.00;7.50;;;;;14.73;50.89;100879.38;5060021;28;45330;-48
2022/04/19 00:48:56;;;;;;;;;9.00;7.25;;;;;14.42;50.21;100832.47;5078603;28;45432;-49
2022/04/19 00:51:22;;;;;;;;;7.00;6.00;;;;;14.68;50.67;100879.22;5077710;28;45379;-50
2022/04/19 00:53:47;;;;;;;;;7.50;7.00;;;;;14.42;50.65;100843.50;5060157;28;45420;-51
2022/04/19 00:56:13;;;;;;;;;9.75;7.25;;;;;14.33;50.40;100831.94;5059850;28;45461;-49
2022/04/19 00:58:39;;;;;;;;;7.75;6.00;;;;;14.50;50.43;100870.78;5078614;28;45312;-49
2022/04/19 01:01:04;;;;;;;;;14.00;11.00;;;;;14.41;50.47;100855.59;5060023;28;46094;-50
2022/04/19 01:03:30;;;;;;;;;12.00;11.25;;;;;14.31;50.33;100845.13;5094009;27;45353;-49
2022/04/19 01:05:55;;;;;;;;;10.75;7.50;;;;;14.42;50.55;100864.75;5060078;28;45370;-49
2022/04/19 01:08:22;;;;;;;;;7.25;6.25;;;;;14.31;49.62;100836.00;5077248;28;45370;-51
2022/04/19 01:10:47;;;;;;;;;7.40;5.80;;;;;14.34;50.06;100841.91;5094107;27;46250;-50
2022/04/19 01:13:17;;;;;;;;;7.00;6.00;;;;;14.55;49.88;100870.06;5076782;28;45495;-52
2022/04/19 01:15:47;;;;;;;;;7.00;7.00;;;;;14.31;50.12;100831.31;5078127;28;45286;-52
2022/04/19 01:18:13;;;;;;;;;16.00;9.20;;;;;14.50;50.50;100868.03;5078039;28;45514;-50
2022/04/19 01:20:39;;;;;;;;;12.40;9.60;;;;;14.48;50.55;100872.09;5057738;28;46097;-49
2022/04/19 01:23:05;;;;;;;;;7.50;6.25;;;;;14.20;50.27;100810.06;5073471;28;45373;-48
2022/04/19 01:25:30;;;;;;;;;12.00;8.00;;;;;14.23;50.89;100854.59;5040035;28;45369;-53
2022/04/19 01:27:56;;;;;;;;;5.25;5.00;;;;;14.28;50.70;100858.56;5068518;28;45390;-49
2022/04/19 01:30:21;;;;;;;;;10.25;9.75;;;;;14.32;50.77;100859.78;5077738;28;45364;-52
2022/04/19 01:32:47;;;;;;;;;7.75;6.75;;;;;14.04;50.56;100817.06;5074539;28;45720;-49
2022/04/19 01:35:14;;;;;;;;;12.25;8.00;;;;;14.13;50.35;100829.47;5090781;27;45218;-49
2022/04/19 01:37:42;;;;;;;;;11.40;11.00;;;;;14.05;49.81;100816.00;5064266;28;46049;-53
2022/04/19 01:40:17;;;;;;;;;9.20;7.80;;;;;13.98;50.23;100818.00;5077611;28;45459;-49
2022/04/19 01:43:03;;;;;;;;;6.60;6.60;;;;;14.26;50.21;100855.19;5076200;28;45363;-48
2022/04/19 01:45:30;;;;;;;;;7.60;6.80;;;;;14.32;49.98;100859.78;5059499;28;45353;-47
2022/04/19 01:47:59;;;;;;;;;8.20;7.20;;;;;14.26;49.76;100855.19;5093426;27;45463;-51
2022/04/19 01:50:28;;;;;;;;;6.40;5.00;;;;;13.95;50.12;100820.16;5077306;28;46273;-50
2022/04/19 01:52:57;;;;;;;;;10.00;7.40;;;;;14.16;50.00;100850.22;5075921;28;45828;-49
2022/04/19 01:55:22;;;;;;;;;6.40;6.00;;;;;14.14;49.17;100855.16;5077379;28;45356;-50
2022/04/19 01:57:52;;;;;;;;;3.25;3.25;;;;;14.13;49.47;100850.72;5077814;28;45487;-50
2022/04/19 02:00:17;;;;;;;;;8.00;5.60;;;;;14.07;49.16;100852.47;5042292;28;46280;-49
2022/04/19 02:02:43;;;;;;;;;6.25;6.25;;;;;14.13;49.00;100850.72;5076524;28;45432;-50
2022/04/19 02:05:09;;;;;;;;;7.25;5.75;;;;;14.10;48.81;100852.84;5076868;28;45679;-50
2022/04/19 02:07:38;;;;;;;;;5.00;4.00;;;;;13.78;48.67;100817.16;5077029;28;45577;-52
2022/04/19 02:10:04;;;;;;;;;5.40;5.40;;;;;13.88;48.90;100849.72;5076892;28;47159;-54
2022/04/19 02:12:30;;;;;;;;;6.80;4.00;;;;;13.76;48.53;100832.28;5092412;27;45401;-53
2022/04/19 02:14:55;;;;;;;;;3.50;3.50;;;;;13.78;48.75;100844.75;5076800;28;45235;-47
2022/04/19 02:17:23;;;;;;;;;5.25;5.25;;;;;13.80;48.64;100858.34;5077210;28;45242;-50
2022/04/19 02:19:49;;;;;;;;;4.60;4.20;;;;;13.74;48.24;100848.22;5076354;28;46047;-51
2022/04/19 02:22:14;;;;;;;;;3.00;3.00;;;;;13.45;48.01;100792.75;5076461;28;45380;-48
2022/04/19 02:24:40;;;;;;;;;3.75;3.75;;;;;13.78;48.21;100850.28;5042062;28;45381;-49
2022/04/19 02:27:05;;;;;;;;;6.75;5.00;;;;;13.42;48.10;100822.47;5076904;28;45489;-50
2022/04/19 02:29:32;;;;;;;;;4.00;3.50;;;;;13.53;47.99;100855.88;5058162;28;46549;-48
2022/04/19 02:31:57;;;;;;;;;3.00;3.00;;;;;13.49;47.91;100852.75;5076277;28;45369;-51
2022/04/19 02:34:23;;;;;;;;;4.00;4.00;;;;;13.35;48.12;100807.88;5076657;28;45306;-49
2022/04/19 02:36:48;;;;;;;;;4.75;2.75;;;;;13.60;48.13;100842.84;5076878;28;45201;-54
2022/04/19 02:39:14;;;;;;;;;3.50;3.50;;;;;13.63;48.15;100845.16;5076312;28;45699;-49
2022/04/19 02:41:39;;;;;;;;;3.00;3.00;;;;;13.61;47.93;100847.28;5076515;28;45280;-49
2022/04/19 02:44:07;;;;;;;;;3.75;2.75;;;;;13.57;47.88;100837.81;5076259;28;45297;-51
2022/04/19 02:46:33;;;;;;;;;3.20;3.20;;;;;13.51;47.96;100839.56;5059005;28;45611;-48
2022/04/19 02:49:01;;;;;;;;;3.75;3.75;;;;;13.41;47.87;100844.75;5076308;28;45456;-53
2022/04/19 02:51:27;;;;;;;;;3.00;3.00;;;;;13.32;48.16;100852.47;5076420;28;45462;-52
2022/04/19 02:53:53;;;;;;;;;3.40;3.40;;;;;13.27;47.95;100831.09;5076099;28;45373;-48
2022/04/19 02:56:18;;;;;;;;;4.50;4.50;;;;;13.41;47.76;100844.75;5076390;28;45160;-48
2022/04/19 02:58:45;;;;;;;;;2.75;2.75;;;;;13.33;47.41;100843.13;5076248;28;45972;-53
2022/04/19 03:01:11;;;;;;;;;3.60;3.60;;;;;13.35;47.24;100843.72;5075649;28;45253;-50
2022/04/19 03:03:37;;;;;;;;;2.00;2.00;;;;;13.31;46.79;100831.50;5076700;28;45405;-49
2022/04/19 03:06:03;;;;;;;;;4.50;2.75;;;;;13.30;46.46;100835.31;5074629;28;45495;-55
2022/04/19 03:08:28;;;;;;;;;3.25;3.25;;;;;13.18;47.11;100829.69;5076197;28;45671;-48
2022/04/19 03:10:55;;;;;;;;;5.00;4.00;;;;;13.23;46.74;100832.63;5076373;28;45481;-50
2022/04/19 03:13:20;;;;;;;;;4.20;4.00;;;;;13.22;46.94;100833.69;5057385;28;45488;-48
2022/04/19 03:15:46;;;;;;;;;2.50;2.50;;;;;13.01;46.78;100811.00;5058389;28;45354;-52
2022/04/19 03:18:11;;;;;;;;;3.25;3.25;;;;;13.09;46.64;100825.56;5075677;28;46620;-54
2022/04/19 03:20:37;;;;;;;;;4.75;3.00;;;;;13.17;46.96;100838.22;5057947;28;45241;-49
2022/04/19 03:28:30;;;;;;;;;4.00;3.00;;;;;13.08;47.01;100827.47;5075957;28;45446;-49
2022/04/19 03:30:55;;;;;;;;;3.00;3.00;;;;;12.93;46.88;100810.44;5076273;28;45389;-52
2022/04/19 03:33:21;;;;;;;;;2.00;2.00;;;;;13.06;47.04;100835.13;5075777;28;45313;-48
2022/04/19 03:35:46;;;;;;;;;2.00;2.00;;;;;12.99;47.30;100823.31;5076476;28;45693;-51
2022/04/19 03:38:12;;;;;;;;;3.75;2.50;;;;;13.00;46.74;100817.59;5091323;27;47561;-48
2022/04/19 03:40:37;;;;;;;;;2.00;2.00;;;;;13.04;46.88;100811.63;5076073;28;45345;-52
2022/04/19 03:43:07;;;;;;;;;2.75;2.75;;;;;13.12;46.99;100825.09;5075714;28;45305;-50
2022/04/19 03:45:32;;;;;;;;;2.20;2.20;;;;;12.90;46.80;100777.84;5076003;28;45497;-49
2022/04/19 03:48:00;;;;;;;;;2.75;2.75;;;;;13.17;46.71;100822.50;5075766;28;46341;-53
2022/04/19 03:50:25;;;;;;;;;4.40;3.20;;;;;13.17;46.56;100811.47;5075563;28;45354;-51
2022/04/19 03:52:51;;;;;;;;;3.00;3.00;;;;;13.14;46.77;100821.03;5075746;28;45344;-50
2022/04/19 03:55:17;;;;;;;;;3.75;2.00;;;;;13.04;46.83;100817.13;5076082;28;45333;-49
2022/04/19 03:57:42;;;;;;;;;3.00;3.00;;;;;13.04;47.08;100820.72;5075367;28;46409;-53
2022/04/19 04:00:08;;;;;;;;;3.00;3.00;;;;;12.97;47.46;100812.50;5057302;28;45427;-48
2022/04/19 04:02:34;;;;;;;;;3.00;1.75;;;;;12.97;47.46;100817.19;5073640;28;45323;-54
2022/04/19 04:04:59;;;;;;;;;4.50;3.00;;;;;12.98;47.86;100816.13;5074354;28;45516;-49
2022/04/19 04:07:26;;;;;;;;;4.50;2.00;;;;;13.03;47.70;100816.28;5056857;28;45367;-51
2022/04/19 04:09:52;;;;;;;;;5.00;2.00;;;;;13.02;48.24;100809.06;5057018;28;45539;-53
2022/04/19 04:12:17;;;;;;;;;5.00;2.00;;;;;12.97;48.20;100818.03;5075407;28;45526;-48
2022/04/19 04:14:43;;;;;;;;;2.50;2.00;;;;;12.98;48.38;100821.63;5075378;28;45448;-50
2022/04/19 04:17:09;;;;;;;;;4.25;3.00;;;;;12.87;48.97;100812.22;5075125;28;47213;-51
2022/04/19 04:19:34;;;;;;;;;2.25;2.25;;;;;12.82;48.91;100820.28;5077184;28;45423;-47
2022/04/19 04:22:00;;;;;;;;;4.50;3.00;;;;;12.73;48.77;100790.28;5079043;28;45381;-52
2022/04/19 04:24:26;;;;;;;;;8.25;3.25;;;;;12.70;49.20;100790.72;5060998;28;45395;-50
2022/04/19 04:26:51;;;;;;;;;2.00;2.00;;;;;12.68;49.06;100775.50;5078399;28;46649;-49
2022/04/19 04:29:17;;;;;;;;;3.00;3.00;;;;;12.64;49.14;100760.50;5078575;28;45342;-49
2022/04/19 04:31:42;;;;;;;;;4.00;2.75;;;;;12.74;49.48;100780.09;5078319;28;45437;-48
2022/04/19 04:34:08;;;;;;;;;3.75;2.50;;;;;12.85;49.73;100812.41;5078828;28;45367;-52
2022/04/19 04:36:33;;;;;;;;;2.25;2.25;;;;;12.92;49.31;100814.28;5078230;28;45231;-49
2022/04/19 04:38:59;;;;;;;;;7.25;3.00;;;;;12.92;49.56;100815.09;5078390;28;45802;-51
2022/04/19 04:41:25;;;;;;;;;4.00;4.00;;;;;12.95;49.47;100820.19;5078629;28;45320;-51
2022/04/19 04:43:50;;;;;;;;;6.00;3.00;;;;;12.98;49.71;100811.44;5078464;28;45572;-49
2022/04/19 04:51:43;;;;;;;;;3.00;1.60;;;;;12.71;50.01;100794.34;5078032;28;45236;-51
2022/04/19 04:54:09;;;;;;;;;9.50;4.75;;;;;12.91;50.41;100829.94;5078237;28;46010;-50
2022/04/19 04:56:34;;;;;;;;;2.75;2.75;;;;;12.92;50.52;100833.56;5078100;28;46292;-49
2022/04/19 04:59:00;;;;;;;;;5.25;4.25;;;;;12.85;50.67;100836.34;5077837;28;45453;-52
2022/04/19 05:01:25;;;;;;;;;7.50;5.00;;;;;12.61;51.04;100801.16;5043515;28;45350;-49
2022/04/19 05:03:51;;;;;;;;;6.25;4.25;;;;;12.74;51.35;100827.78;5078230;28;45306;-52
2022/04/19 05:06:16;;;;;;;;;5.50;4.00;;;;;12.68;50.83;100825.06;5059933;28;45661;-50
2022/04/19 05:08:42;;;;;;;;;2.25;1.00;;;;;12.48;51.26;100793.00;5059993;28;45438;-48
2022/04/19 05:11:07;;;;;;;;;5.75;4.75;;;;;12.80;51.45;100844.47;5078458;28;45394;-52
2022/04/19 05:13:33;;;;;;;;;3.00;2.50;;;;;12.68;51.42;100836.94;5059889;28;45325;-48
2022/04/19 05:15:58;;;;;;;;;4.50;3.25;;;;;12.04;51.93;100733.22;5077894;28;45895;-51
2022/04/19 05:18:25;;;;;;;;;4.50;3.00;;;;;12.72;51.65;100845.59;5060067;28;45341;-49
2022/04/19 05:20:50;;;;;;;;;3.80;3.20;;;;;12.48;52.05;100801.28;5059663;28;45474;-48
2022/04/19 05:23:16;;;;;;;;;5.50;4.00;;;;;12.64;52.07;100841.19;5078202;28;45331;-53
2022/04/19 05:25:41;;;;;;;;;2.00;2.00;;;;;12.70;52.21;100834.78;5078178;28;45376;-49
2022/04/19 05:28:07;;;;;;;;;4.50;3.75;;;;;12.69;52.41;100844.13;5076544;28;45386;-50
2022/04/19 05:30:33;;;;;;;;;3.25;3.00;;;;;12.66;52.06;100843.72;5077656;28;45343;-51
2022/04/19 05:32:58;;;;;;;;;6.75;3.25;;;;;12.64;52.77;100837.59;5039514;28;45509;-50
2022/04/19 05:35:23;;;;;;;;;3.75;3.25;;;;;12.63;52.84;100839.50;5077838;28;45682;-52
2022/04/19 05:37:49;;;;;;;;;3.75;3.75;;;;;12.62;53.77;100840.56;5077845;28;45346;-49
2022/04/19 05:40:15;;;;;;;;;3.50;2.00;;;;;12.48;54.02;100837.06;5077643;28;45422;-51
2022/04/19 05:42:40;;;;;;;;;2.75;2.75;;;;;12.50;53.57;100837.69;5077594;28;45656;-52
2022/04/19 05:45:06;;;;;;;;;3.25;3.00;;;;;12.46;53.94;100833.69;5077161;28;46625;-49
2022/04/19 05:47:33;;;;;;;;;4.00;4.00;;;;;12.28;53.59;100793.19;5077294;28;45458;-49
2022/04/19 05:49:58;;;;;;;;;3.00;2.40;;;;;12.52;54.18;100848.47;5076934;28;45770;-49
2022/04/19 05:52:24;;;;;;;;;5.25;3.75;;;;;12.37;53.89;100822.09;5077471;28;45431;-48
2022/04/19 05:54:49;;;;;;;;;6.00;2.50;;;;;12.59;53.76;100832.75;5076986;28;46253;-49
2022/04/19 05:57:15;;;;;;;;;4.75;3.50;;;;;12.71;53.46;100836.47;5077166;28;45484;-48
2022/04/19 05:59:40;;;;;;;;;5.50;4.00;;;;;12.73;53.73;100839.00;5077120;28;45370;-48
2022/04/19 06:04:53;;;;;;;;;2.20;2.20;;;;;12.76;53.96;100822.03;5047568;28;45823;-52
2022/04/19 06:07:25;;;;;;;;;4.00;3.00;;;;;12.82;53.80;100843.16;5042441;28;45890;-49
2022/04/19 06:09:50;;;;;;;;;5.80;4.80;;;;;12.80;54.24;100836.22;5059634;28;45428;-50
2022/04/19 06:12:16;;;;;;;;;6.25;4.00;;;;;12.74;54.46;100836.03;5059520;28;45370;-48
2022/04/19 06:14:41;;;;;;;;;5.00;3.75;;;;;12.41;55.02;100792.22;5058654;28;46555;-53
2022/04/19 06:17:07;;;;;;;;;4.75;4.75;;;;;12.66;54.78;100846.47;5076855;28;45285;-49
2022/04/19 06:19:32;;;;;;;;;3.00;3.00;;;;;12.70;54.57;100839.47;5076647;28;45366;-50
2022/04/19 06:21:58;;;;;;;;;4.75;4.00;;;;;12.72;54.69;100846.41;5077213;28;45295;-49
2022/04/19 06:24:26;;;;;;;;;3.25;3.25;;;;;12.74;54.85;100848.94;5076634;28;45291;-49
2022/04/19 06:26:52;;;;;;;;;7.60;4.40;;;;;12.67;54.79;100837.16;5077099;28;45449;-49
2022/04/19 06:29:17;;;;;;;;;6.00;5.25;;;;;12.77;54.54;100862.28;5058826;28;45528;-50
2022/04/19 06:31:46;;;;;;;;;2.75;2.75;;;;;12.74;54.82;100857.22;5051120;27;45402;-48
2022/04/19 06:34:11;;;;;;;;;4.00;4.00;;;;;12.75;54.92;100850.63;5057088;28;45715;-48
2022/04/19 06:36:37;;;;;;;;;3.00;3.00;;;;;12.74;54.76;100851.69;5058786;28;45729;-49
2022/04/19 06:39:03;;;;;;;;;3.75;3.75;;;;;12.71;55.41;100852.16;5058756;28;45222;-50
2022/04/19 06:41:28;;;;;;;;;8.25;6.00;;;;;12.69;54.31;100851.53;5041240;28;45500;-53
2022/04/19 06:43:57;;;;;;;;;4.25;3.50;;;;;12.23;54.56;100765.47;5076544;28;45385;-49
2022/04/19 06:46:25;;;;;;;;;6.00;4.00;;;;;12.66;54.99;100838.22;5076691;28;45453;-48
2022/04/19 06:48:54;;;;;;;;;5.40;4.60;;;;;12.64;55.42;100840.34;5076693;28;45375;-49
2022/04/19 06:51:23;;;;;;;;;4.80;4.80;;;;;12.63;55.31;100836.75;5075948;28;45501;-54
2022/04/19 06:53:48;;;;;;;;;4.80;4.00;;;;;12.70;55.22;100840.28;5076233;28;45562;-52
2022/04/19 06:56:18;;;;;;;;;5.00;5.00;;;;;12.71;54.80;100833.72;5076449;28;45381;-50
2022/04/19 06:58:44;;;;;;;;;5.60;5.40;;;;;12.76;54.74;100826.69;5057964;28;45426;-47
2022/04/19 07:01:12;;;;;;;;;4.75;4.75;;;;;12.88;54.54;100839.50;5076258;28;45422;-51
2022/04/19 07:03:38;;;;;;;;;6.60;5.60;;;;;12.87;54.59;100839.75;5076103;28;46409;-49
2022/04/19 07:06:04;;;;;;;;;9.75;5.00;;;;;12.94;54.54;100842.44;5076108;28;45405;-51
2022/04/19 07:08:30;;;;;;;;;8.40;6.00;;;;;12.86;54.26;100830.63;5076244;28;45449;-49
2022/04/19 07:10:56;;;;;;;;;4.00;3.50;;;;;13.04;54.11;100844.69;5074950;28;45502;-52
2022/04/19 07:13:23;;;;;;;;;5.60;5.60;;;;;13.03;54.18;100843.84;5074962;28;46268;-49
2022/04/19 07:15:49;;;;;;;;;7.20;6.00;;;;;13.01;53.61;100832.19;5045503;28;45369;-50
2022/04/19 07:18:16;;;;;;;;;10.80;8.80;;;;;12.99;53.78;100837.09;5055021;28;45435;-52
2022/04/19 07:28:56;;;;;;;;;11.40;8.60;;;;;12.99;53.60;100839.84;5074218;27;45397;-52
2022/04/19 07:31:22;;;;;;;;;6.00;6.00;;;;;12.97;53.71;100839.25;5075754;28;45616;-52
2022/04/19 07:33:48;;;;;;;;;8.75;5.25;;;;;13.01;53.25;100840.44;5062103;28;45736;-54
2022/04/19 07:36:14;;;;;;;;;10.20;7.00;;;;;13.01;53.13;100843.22;5064444;28;45540;-53
2022/04/19 07:38:39;;;;;;;;;7.25;7.25;;;;;13.12;53.07;100838.88;5057207;28;45374;-52
2022/04/19 07:41:05;;;;;;;;;9.75;9.25;;;;;13.14;53.03;100837.56;5074605;28;45412;-55
2022/04/19 07:43:31;;;;;;;;;12.00;9.25;;;;;13.22;53.35;100844.72;5057061;28;45712;-55
2022/04/19 07:45:56;;;;;;;;;20.50;12.75;;;;;13.19;52.52;100834.16;5074717;28;45468;-55
2022/04/19 07:48:22;;;;;;;;;12.75;7.50;;;;;12.78;52.59;100769.47;5075305;28;45345;-50
2022/04/19 07:50:47;;;;;;;;;15.75;12.50;;;;;13.02;52.91;100809.94;5075426;28;45497;-58
2022/04/19 07:53:13;;;;;;;;;14.50;13.00;;;;;13.21;52.97;100839.41;5073903;28;46575;-50
2022/04/19 07:55:38;;;;;;;;;14.75;11.75;;;;;13.26;52.91;100837.69;5074977;28;45363;-54
2022/04/19 07:58:04;;;;;;;;;11.50;11.50;;;;;13.33;52.50;100834.84;5074066;28;45359;-51
2022/04/19 08:00:30;;;;;;;;;12.25;10.50;;;;;13.44;52.32;100832.41;5074782;28;45314;-53
2022/04/19 08:02:55;;;;;;;;;18.00;11.75;;;;;13.46;52.16;100825.63;5075311;28;46349;-55
2022/04/19 08:05:22;;;;;;;;;11.00;10.00;;;;;13.15;51.86;100791.59;5072667;28;45351;-51
2022/04/19 08:07:50;;;;;;;;;13.00;7.80;;;;;13.36;51.24;100815.13;5053721;28;45500;-51
2022/04/19 08:10:16;;;;;;;;;13.60;11.00;;;;;13.44;51.37;100832.41;5055214;28;45528;-55
2022/04/19 08:12:42;;;;;;;;;13.20;11.00;;;;;13.36;51.03;100801.31;5053629;28;45821;-50
2022/04/19 08:15:08;;;;;;;;;10.25;8.00;;;;;13.53;51.17;100831.91;5049304;28;45386;-51
2022/04/19 08:17:35;;;;;;;;;15.60;11.80;;;;;13.49;50.61;100813.28;5037048;28;45874;-55
2022/04/19 08:20:01;;;;;;;;;11.60;10.20;;;;;13.44;50.22;100827.72;5075025;28;45623;-52
2022/04/19 08:22:27;;;;;;;;;14.80;11.20;;;;;13.34;50.67;100794.34;5074802;28;47192;-55
2022/04/19 08:24:53;;;;;;;;;11.75;10.25;;;;;13.67;50.28;100832.59;5040535;28;45556;-54
2022/04/19 08:27:18;;;;;;;;;10.75;10.00;;;;;13.65;49.99;100829.22;5074833;28;45343;-51
2022/04/19 08:29:44;;;;;;;;;14.00;12.00;;;;;13.77;50.10;100828.47;5055831;28;45290;-50
2022/04/19 08:32:10;;;;;;;;;9.25;7.00;;;;;13.89;49.80;100823.84;5056186;28;47442;-54
2022/04/19 08:34:35;;;;;;;;;12.75;9.00;;;;;14.01;49.10;100834.09;5056572;28;45453;-50
2022/04/19 08:37:02;;;;;;;;;9.50;9.25;;;;;14.09;48.88;100825.50;5060271;27;45701;-53
2022/04/19 08:39:28;;;;;;;;;13.60;8.80;;;;;14.06;48.62;100821.28;5064954;28;45745;-56
2022/04/19 08:41:54;;;;;;;;;10.60;7.80;;;;;14.16;48.08;100825.41;5074131;28;45439;-55
2022/04/19 08:44:19;;;;;;;;;9.25;7.00;;;;;14.25;47.46;100826.72;5056357;28;45329;-55
2022/04/19 08:46:45;;;;;;;;;10.00;8.25;;;;;14.32;46.46;100823.91;5091017;27;45392;-54
2022/04/19 08:49:11;;;;;;;;;7.50;4.00;;;;;14.25;46.98;100803.81;5057168;28;45291;-54
2022/04/19 08:51:37;;;;;;;;;9.50;8.25;;;;;14.45;46.81;100820.94;5090473;27;45338;-57
2022/04/19 08:59:31;;;;;;;;;9.80;8.60;;;;;14.67;46.54;100812.09;5074964;28;45413;-52
2022/04/19 09:01:57;;;;;;;;;6.25;6.25;;;;;14.82;45.81;100814.41;5056473;28;45409;-52
2022/04/19 09:04:23;;;;;;;;;11.00;11.00;;;;;14.91;45.61;100815.75;5068682;27;45481;-52
2022/04/19 09:06:54;;;;;;;;;13.00;11.00;;;;;15.00;45.87;100807.94;5075921;28;45456;-56
2022/04/19 09:09:23;;;;;;;;;9.00;7.40;;;;;15.15;46.11;100810.22;5077400;28;45271;-56
2022/04/19 09:11:50;;;;;;;;;5.60;4.00;;;;;15.25;45.44;100808.75;5075908;28;46229;-53
2022/04/19 09:14:15;;;;;;;;;12.20;9.00;;;;;15.27;44.35;100812.16;5068482;27;45346;-52
2022/04/19 09:16:41;;;;;;;;;9.50;9.25;;;;;14.54;44.86;100688.03;5076561;28;45397;-52
2022/04/19 09:19:10;;;;;;;;;14.00;9.80;;;;;15.38;45.50;100813.22;5076652;28;45420;-54
2022/04/19 09:21:40;;;;;;;;;10.20;9.60;;;;;15.48;45.15;100810.66;5093210;27;45431;-52
2022/04/19 09:24:18;;;;;;;;;6.00;6.00;;;;;15.37;44.73;100772.81;5077498;28;45442;-51
2022/04/19 09:26:44;;;;;;;;;12.40;9.20;;;;;15.50;45.27;100804.88;5093324;27;45420;-51
2022/04/19 09:29:21;;;;;;;;;14.20;8.00;;;;;15.68;44.93;100801.09;5078007;28;45335;-49
2022/04/19 09:32:02;;;;;;;;;9.40;7.20;;;;;15.85;44.40;100798.44;5076086;28;46662;-51
2022/04/19 09:34:29;;;;;;;;;10.20;8.20;;;;;15.86;44.35;100784.34;5059717;28;45395;-49
2022/04/19 09:37:06;;;;;;;;;13.20;11.40;;;;;15.97;44.36;100788.16;5077704;28;45381;-50
2022/04/19 09:39:34;;;;;;;;;8.40;8.40;;;;;16.06;44.04;100788.63;5077914;28;45406;-50
2022/04/19 09:42:01;;;;;;;;;11.00;9.20;;;;;15.92;44.06;100751.25;5077271;28;45739;-50
2022/04/19 09:44:29;;;;;;;;;12.00;9.40;;;;;15.80;44.26;100735.50;5057815;28;46733;-51
2022/04/19 09:47:01;;;;;;;;;16.60;11.00;;;;;16.12;44.48;100784.84;5077489;28;45389;-53
2022/04/19 09:49:48;;;;;;;;;8.80;8.40;;;;;16.23;44.48;100783.09;5077509;28;45472;-49
2022/04/19 09:52:20;;;;;;;;;11.20;10.20;;;;;16.28;44.58;100779.63;5075719;28;46007;-50
2022/04/19 09:55:07;;;;;;;;;14.20;11.40;;;;;16.43;43.81;100786.50;5076099;28;45411;-51
2022/04/19 09:57:37;;;;;;;;;8.60;7.40;;;;;16.54;43.60;100782.81;5041383;28;45323;-51
2022/04/19 10:00:10;;;;;;;;;8.80;8.20;;;;;16.66;43.84;100785.50;5057342;28;45283;-49
2022/04/19 10:08:20;;;;;;;;;12.40;11.40;;;;;17.05;42.48;100760.66;5065937;28;45492;-53
2022/04/19 10:10:50;;;;;;;;;13.40;10.60;;;;;16.80;42.87;100711.16;5077477;28;45943;-52
2022/04/19 10:13:17;;;;;;;;;9.80;9.80;;;;;17.16;42.50;100760.78;5050917;27;45559;-54
2022/04/19 10:15:42;;;;;;;;;13.00;11.00;;;;;17.21;42.82;100749.75;5066650;28;45811;-52
2022/04/19 10:18:08;;;;;;;;;16.00;14.00;;;;;17.04;42.89;100708.22;5075764;28;45426;-53
2022/04/19 10:20:55;;;;;;;;;12.00;11.25;;;;;17.29;42.97;100740.16;5057648;28;45362;-49
2022/04/19 10:23:21;;;;;;;;;13.20;11.60;;;;;17.30;42.74;100734.34;5072626;27;46027;-48
2022/04/19 10:25:48;;;;;;;;;19.50;13.25;;;;;17.10;42.65;100712.72;5056435;28;45424;-49
2022/04/19 10:28:27;;;;;;;;;12.40;12.40;;;;;17.29;42.81;100738.22;5057801;28;45400;-47
2022/04/19 10:30:53;;;;;;;;;10.60;10.40;;;;;17.30;43.04;100739.06;5056645;28;45375;-51
2022/04/19 10:33:50;;;;;;;;;11.40;10.20;;;;;17.31;42.69;100736.03;5058631;28;45920;-49
2022/04/19 10:36:22;;;;;;;;;14.40;12.20;;;;;17.14;42.92;100724.97;5055241;28;45389;-47
2022/04/19 10:39:11;;;;;;;;;15.40;11.80;;;;;17.25;42.84;100741.75;5054880;28;45347;-54
2022/04/19 10:41:52;;;;;;;;;10.00;9.40;;;;;17.09;43.27;100724.06;5048691;28;45611;-49
2022/04/19 10:44:23;;;;;;;;;16.00;12.80;;;;;16.69;43.52;100663.06;5074206;28;46598;-52
2022/04/19 10:47:16;;;;;;;;;18.60;15.00;;;;;17.17;43.59;100735.56;5074712;28;45595;-53
2022/04/19 10:50:06;;;;;;;;;11.60;10.40;;;;;17.23;43.93;100730.09;5065615;28;45382;-49
2022/04/19 10:52:42;;;;;;;;;20.20;16.80;;;;;17.26;43.40;100729.56;5057265;28;45259;-49
2022/04/19 10:55:18;;;;;;;;;20.80;17.40;;;;;17.26;43.16;100711.00;5075041;28;45754;-50
2022/04/19 10:58:06;;;;;;;;;18.00;14.00;;;;;17.33;43.12;100689.44;5089619;27;45479;-49
2022/04/19 11:00:35;;;;;;;;;19.20;14.80;;;;;17.66;42.98;100717.28;5074680;28;45881;-48
2022/04/19 11:03:01;;;;;;;;;19.80;15.00;;;;;17.85;42.68;100719.72;5056837;28;45575;-51
2022/04/19 11:05:41;;;;;;;;;18.25;15.50;;;;;17.93;42.58;100702.56;5075052;28;46842;-49
2022/04/19 11:08:25;;;;;;;;;14.20;14.20;;;;;18.10;42.21;100716.38;5073848;28;45758;-54
2022/04/19 11:11:03;;;;;;;;;19.60;15.40;;;;;17.78;42.44;100658.00;5072649;28;45398;-53
2022/04/19 11:13:31;;;;;;;;;17.80;15.00;;;;;18.17;42.29;100705.06;5062675;27;45699;-53
2022/04/19 11:16:05;;;;;;;;;17.00;14.80;;;;;18.25;42.37;100710.13;5029371;28;46306;-49
2022/04/19 11:18:32;;;;;;;;;20.40;15.80;;;;;18.35;42.14;100714.94;5075941;28;45256;-52
2022/04/19 11:20:59;;;;;;;;;16.60;13.00;;;;;18.45;42.12;100708.63;5056425;28;45434;-49
2022/04/19 11:23:25;;;;;;;;;18.00;16.20;;;;;18.58;41.87;100706.50;5074529;28;45628;-54
2022/04/19 11:25:52;;;;;;;;;20.00;19.40;;;;;18.71;41.74;100700.47;5074172;28;46090;-55
2022/04/19 11:28:21;;;;;;;;;17.00;15.00;;;;;18.85;41.68;100705.53;5073879;28;45488;-50
2022/04/19 11:30:50;;;;;;;;;17.40;16.00;;;;;18.96;42.30;100696.16;5075731;28;45338;-52
2022/04/19 11:33:25;;;;;;;;;20.60;19.00;;;;;19.05;41.46;100688.19;5076014;28;45310;-51
2022/04/19 11:36:00;;;;;;;;;19.20;16.40;;;;;19.19;40.74;100696.84;5057309;28;46242;-51
2022/04/19 11:38:25;;;;;;;;;18.60;17.00;;;;;19.24;40.69;100699.66;5075169;28;45541;-52
2022/04/19 11:49:04;;;;;;;;;17.80;17.40;;;;;19.32;40.78;100695.53;5060551;28;45392;-52
2022/04/19 11:51:32;;;;;;;;;19.75;17.00;;;;;19.34;40.45;100701.66;5057581;28;45325;-53
2022/04/19 11:53:57;;;;;;;;;24.00;22.60;;;;;19.34;40.65;100702.50;5075629;28;45504;-53
2022/04/19 11:56:23;;;;;;;;;21.00;17.75;;;;;19.44;40.66;100689.72;5057019;28;46135;-52
2022/04/19 11:58:52;;;;;;;;;20.00;17.25;;;;;19.37;40.81;100698.31;5074925;28;45404;-50
2022/04/19 12:01:21;;;;;;;;;15.80;14.80;;;;;19.45;40.96;100697.81;5075201;28;45275;-52